sensor_id;sensor_type;location;lat;lon;timestamp;P1;durP1;ratioP1;P2;durP2;ratioP2
17631;SDS011;8934;51.194;17.150;2022-09-30T01:32:25;20.47;;;16.87;;
17631;SDS011;8934;51.194;17.150;2022-09-30T01:35:24;22.40;;;19.20;;
17631;SDS011;8934;51.194;17.150;2022-09-30T01:38:24;24.43;;;18.80;;
17631;SDS011;8934;51.194;17.150;2022-09-30T01:41:16;21.47;;;18.93;;
17631;SDS011;8934;51.194;17.150;2022-09-30T01:44:11;21.00;;;18.60;;
17631;SDS011;8934;51.194;17.150;2022-09-30T01:47:05;23.60;;;19.63;;
17631;SDS011;8934;51.194;17.150;2022-09-30T01:50:00;22.87;;;19.23;;
17631;SDS011;8934;51.194;17.150;2022-09-30T01:52:52;24.87;;;19.27;;
17631;SDS011;8934;51.194;17.150;2022-09-30T01:55:49;25.17;;;19.53;;
17631;SDS011;8934;51.194;17.150;2022-09-30T01:58:42;24.80;;;19.80;;
17631;SDS011;8934;51.194;17.150;2022-09-30T02:01:38;20.50;;;18.23;;
17631;SDS011;8934;51.194;17.150;2022-09-30T02:04:32;22.47;;;19.30;;
17631;SDS011;8934;51.194;17.150;2022-09-30T02:07:26;24.80;;;20.60;;
17631;SDS011;8934;51.194;17.150;2022-09-30T02:10:19;24.07;;;20.10;;
17631;SDS011;8934;51.194;17.150;2022-09-30T02:13:16;24.40;;;20.03;;
17631;SDS011;8934;51.194;17.150;2022-09-30T02:16:08;23.97;;;19.30;;
17631;SDS011;8934;51.194;17.150;2022-09-30T02:19:04;25.57;;;20.40;;
17631;SDS011;8934;51.194;17.150;2022-09-30T02:22:03;24.57;;;20.00;;
17631;SDS011;8934;51.194;17.150;2022-09-30T02:24:56;23.23;;;20.63;;
17631;SDS011;8934;51.194;17.150;2022-09-30T02:27:49;23.00;;;19.97;;
17631;SDS011;8934;51.194;17.150;2022-09-30T02:30:42;28.47;;;21.63;;
17631;SDS011;8934;51.194;17.150;2022-09-30T02:33:34;24.20;;;20.23;;
17631;SDS011;8934;51.194;17.150;2022-09-30T02:36:28;23.23;;;19.13;;
17631;SDS011;8934;51.194;17.150;2022-09-30T02:39:21;26.23;;;20.57;;
17631;SDS011;8934;51.194;17.150;2022-09-30T02:42:15;24.47;;;18.87;;
17631;SDS011;8934;51.194;17.150;2022-09-30T02:45:07;24.53;;;19.83;;
17631;SDS011;8934;51.194;17.150;2022-09-30T02:48:01;23.80;;;20.57;;
17631;SDS011;8934;51.194;17.150;2022-09-30T02:50:57;25.10;;;18.83;;
17631;SDS011;8934;51.194;17.150;2022-09-30T02:53:50;23.23;;;20.07;;
17631;SDS011;8934;51.194;17.150;2022-09-30T02:56:47;25.60;;;20.77;;
17631;SDS011;8934;51.194;17.150;2022-09-30T02:59:42;26.80;;;21.73;;
17631;SDS011;8934;51.194;17.150;2022-09-30T03:02:29;29.13;;;21.97;;
17631;SDS011;8934;51.194;17.150;2022-09-30T03:05:17;25.03;;;21.30;;
17631;SDS011;8934;51.194;17.150;2022-09-30T03:08:04;27.87;;;20.83;;
17631;SDS011;8934;51.194;17.150;2022-09-30T03:10:52;27.73;;;21.53;;
17631;SDS011;8934;51.194;17.150;2022-09-30T03:17:31;28.40;;;22.17;;
17631;SDS011;8934;51.194;17.150;2022-09-30T03:20:44;27.30;;;22.47;;
17631;SDS011;8934;51.194;17.150;2022-09-30T03:23:40;28.07;;;22.30;;
17631;SDS011;8934;51.194;17.150;2022-09-30T03:26:44;24.53;;;20.80;;
17631;SDS011;8934;51.194;17.150;2022-09-30T03:29:44;22.43;;;20.03;;
17631;SDS011;8934;51.194;17.150;2022-09-30T03:32:44;22.67;;;19.43;;
17631;SDS011;8934;51.194;17.150;2022-09-30T03:35:43;26.60;;;21.77;;
17631;SDS011;8934;51.194;17.150;2022-09-30T03:38:39;25.03;;;21.80;;
17631;SDS011;8934;51.194;17.150;2022-09-30T03:41:36;29.37;;;22.40;;
17631;SDS011;8934;51.194;17.150;2022-09-30T03:44:28;28.13;;;21.33;;
17631;SDS011;8934;51.194;17.150;2022-09-30T03:47:23;24.90;;;20.37;;
17631;SDS011;8934;51.194;17.150;2022-09-30T03:50:18;27.20;;;19.40;;
17631;SDS011;8934;51.194;17.150;2022-09-30T03:53:09;28.07;;;22.60;;
17631;SDS011;8934;51.194;17.150;2022-09-30T03:55:59;25.67;;;20.97;;
17631;SDS011;8934;51.194;17.150;2022-09-30T03:58:47;27.73;;;21.37;;
17631;SDS011;8934;51.194;17.150;2022-09-30T04:01:35;28.53;;;22.23;;
17631;SDS011;8934;51.194;17.150;2022-09-30T04:04:24;25.43;;;21.17;;
17631;SDS011;8934;51.194;17.150;2022-09-30T04:07:13;23.93;;;20.83;;
17631;SDS011;8934;51.194;17.150;2022-09-30T04:10:01;26.10;;;20.47;;
17631;SDS011;8934;51.194;17.150;2022-09-30T04:12:52;26.63;;;21.60;;
17631;SDS011;8934;51.194;17.150;2022-09-30T04:15:40;27.63;;;21.73;;
17631;SDS011;8934;51.194;17.150;2022-09-30T04:18:27;24.80;;;20.87;;
17631;SDS011;8934;51.194;17.150;2022-09-30T04:21:17;30.57;;;25.37;;
17631;SDS011;8934;51.194;17.150;2022-09-30T04:24:06;27.77;;;24.20;;
17631;SDS011;8934;51.194;17.150;2022-09-30T04:26:54;24.27;;;21.17;;
17631;SDS011;8934;51.194;17.150;2022-09-30T04:29:42;28.43;;;23.77;;
17631;SDS011;8934;51.194;17.150;2022-09-30T04:32:30;25.87;;;21.10;;
17631;SDS011;8934;51.194;17.150;2022-09-30T04:35:18;27.50;;;21.87;;
17631;SDS011;8934;51.194;17.150;2022-09-30T04:38:06;28.90;;;22.03;;
17631;SDS011;8934;51.194;17.150;2022-09-30T04:40:55;24.43;;;20.47;;
17631;SDS011;8934;51.194;17.150;2022-09-30T04:43:44;26.57;;;22.57;;
17631;SDS011;8934;51.194;17.150;2022-09-30T04:46:33;29.17;;;24.03;;
17631;SDS011;8934;51.194;17.150;2022-09-30T04:49:21;26.40;;;21.90;;
17631;SDS011;8934;51.194;17.150;2022-09-30T04:52:09;28.73;;;21.60;;
17631;SDS011;8934;51.194;17.150;2022-09-30T04:54:58;26.80;;;22.43;;
17631;SDS011;8934;51.194;17.150;2022-09-30T04:57:47;27.97;;;22.57;;
17631;SDS011;8934;51.194;17.150;2022-09-30T05:00:36;28.63;;;22.77;;
17631;SDS011;8934;51.194;17.150;2022-09-30T05:03:24;26.87;;;21.70;;
17631;SDS011;8934;51.194;17.150;2022-09-30T05:06:12;23.47;;;20.93;;
17631;SDS011;8934;51.194;17.150;2022-09-30T05:09:00;27.02;;;21.33;;
17631;SDS011;8934;51.194;17.150;2022-09-30T05:11:48;25.70;;;21.73;;
17631;SDS011;8934;51.194;17.150;2022-09-30T05:14:38;25.47;;;21.07;;
17631;SDS011;8934;51.194;17.150;2022-09-30T05:17:25;29.43;;;22.63;;
17631;SDS011;8934;51.194;17.150;2022-09-30T05:20:16;34.40;;;25.10;;
17631;SDS011;8934;51.194;17.150;2022-09-30T05:23:06;33.08;;;24.80;;
17631;SDS011;8934;51.194;17.150;2022-09-30T05:25:54;25.53;;;22.13;;
17631;SDS011;8934;51.194;17.150;2022-09-30T05:28:42;27.97;;;22.53;;
17631;SDS011;8934;51.194;17.150;2022-09-30T05:31:32;26.17;;;21.90;;
17631;SDS011;8934;51.194;17.150;2022-09-30T05:34:20;28.48;;;23.15;;
17631;SDS011;8934;51.194;17.150;2022-09-30T05:37:08;30.95;;;22.92;;
17631;SDS011;8934;51.194;17.150;2022-09-30T05:39:56;35.10;;;26.93;;
17631;SDS011;8934;51.194;17.150;2022-09-30T05:42:44;29.27;;;23.60;;
17631;SDS011;8934;51.194;17.150;2022-09-30T05:45:31;30.63;;;24.30;;
17631;SDS011;8934;51.194;17.150;2022-09-30T05:48:22;32.10;;;24.93;;
17631;SDS011;8934;51.194;17.150;2022-09-30T05:51:10;30.20;;;24.23;;
17631;SDS011;8934;51.194;17.150;2022-09-30T05:53:59;28.13;;;22.90;;
17631;SDS011;8934;51.194;17.150;2022-09-30T05:56:46;30.63;;;25.42;;
17631;SDS011;8934;51.194;17.150;2022-09-30T05:59:34;25.97;;;22.37;;
17631;SDS011;8934;51.194;17.150;2022-09-30T06:02:22;26.70;;;22.90;;
17631;SDS011;8934;51.194;17.150;2022-09-30T06:05:12;32.27;;;25.00;;
17631;SDS011;8934;51.194;17.150;2022-09-30T06:07:59;31.00;;;26.10;;
17631;SDS011;8934;51.194;17.150;2022-09-30T06:10:48;30.35;;;24.63;;
17631;SDS011;8934;51.194;17.150;2022-09-30T06:13:36;28.98;;;23.73;;
17631;SDS011;8934;51.194;17.150;2022-09-30T06:16:24;32.65;;;26.10;;
17631;SDS011;8934;51.194;17.150;2022-09-30T06:19:12;28.55;;;24.00;;
17631;SDS011;8934;51.194;17.150;2022-09-30T06:22:01;28.27;;;24.02;;
17631;SDS011;8934;51.194;17.150;2022-09-30T06:24:49;26.30;;;22.88;;
17631;SDS011;8934;51.194;17.150;2022-09-30T06:27:43;24.42;;;21.45;;
17631;SDS011;8934;51.194;17.150;2022-09-30T06:30:32;26.52;;;22.25;;
17631;SDS011;8934;51.194;17.150;2022-09-30T06:33:20;30.27;;;24.05;;
17631;SDS011;8934;51.194;17.150;2022-09-30T06:36:08;35.45;;;25.65;;
17631;SDS011;8934;51.194;17.150;2022-09-30T06:38:58;34.00;;;28.05;;
17631;SDS011;8934;51.194;17.150;2022-09-30T06:41:46;33.40;;;26.05;;
17631;SDS011;8934;51.194;17.150;2022-09-30T06:44:42;31.70;;;25.75;;
17631;SDS011;8934;51.194;17.150;2022-09-30T06:47:38;33.80;;;25.08;;
17631;SDS011;8934;51.194;17.150;2022-09-30T06:50:43;34.83;;;27.30;;
17631;SDS011;8934;51.194;17.150;2022-09-30T06:53:44;32.03;;;26.38;;
17631;SDS011;8934;51.194;17.150;2022-09-30T06:56:39;32.13;;;25.15;;
17631;SDS011;8934;51.194;17.150;2022-09-30T06:59:27;32.50;;;25.23;;
17631;SDS011;8934;51.194;17.150;2022-09-30T07:02:15;34.78;;;25.48;;
17631;SDS011;8934;51.194;17.150;2022-09-30T07:05:04;30.13;;;24.50;;
17631;SDS011;8934;51.194;17.150;2022-09-30T07:07:53;34.03;;;26.88;;
17631;SDS011;8934;51.194;17.150;2022-09-30T07:10:45;32.65;;;27.42;;
17631;SDS011;8934;51.194;17.150;2022-09-30T07:13:34;29.95;;;24.08;;
17631;SDS011;8934;51.194;17.150;2022-09-30T07:16:24;30.02;;;24.00;;
17631;SDS011;8934;51.194;17.150;2022-09-30T07:19:12;35.30;;;26.65;;
17631;SDS011;8934;51.194;17.150;2022-09-30T07:22:02;30.63;;;24.73;;
17631;SDS011;8934;51.194;17.150;2022-09-30T07:25:04;30.45;;;25.02;;
17631;SDS011;8934;51.194;17.150;2022-09-30T07:27:57;40.78;;;28.88;;
17631;SDS011;8934;51.194;17.150;2022-09-30T07:30:46;35.85;;;28.23;;
17631;SDS011;8934;51.194;17.150;2022-09-30T07:33:34;37.58;;;27.92;;
17631;SDS011;8934;51.194;17.150;2022-09-30T07:36:23;34.42;;;27.73;;
17631;SDS011;8934;51.194;17.150;2022-09-30T07:39:18;32.38;;;24.42;;
17631;SDS011;8934;51.194;17.150;2022-09-30T07:42:06;29.73;;;24.17;;
17631;SDS011;8934;51.194;17.150;2022-09-30T07:44:54;32.95;;;25.52;;
17631;SDS011;8934;51.194;17.150;2022-09-30T07:47:43;36.90;;;29.08;;
17631;SDS011;8934;51.194;17.150;2022-09-30T07:50:38;31.75;;;25.05;;
17631;SDS011;8934;51.194;17.150;2022-09-30T07:53:30;35.38;;;27.15;;
17631;SDS011;8934;51.194;17.150;2022-09-30T07:56:19;42.25;;;29.20;;
17631;SDS011;8934;51.194;17.150;2022-09-30T07:59:07;39.40;;;29.30;;
17631;SDS011;8934;51.194;17.150;2022-09-30T08:01:57;32.25;;;27.70;;
17631;SDS011;8934;51.194;17.150;2022-09-30T08:04:47;35.50;;;25.95;;
17631;SDS011;8934;51.194;17.150;2022-09-30T08:07:35;36.13;;;27.65;;
17631;SDS011;8934;51.194;17.150;2022-09-30T08:10:26;34.65;;;28.00;;
17631;SDS011;8934;51.194;17.150;2022-09-30T08:13:14;32.95;;;27.75;;
17631;SDS011;8934;51.194;17.150;2022-09-30T08:16:01;30.95;;;26.52;;
17631;SDS011;8934;51.194;17.150;2022-09-30T08:18:52;37.45;;;30.20;;
17631;SDS011;8934;51.194;17.150;2022-09-30T08:21:42;36.40;;;30.00;;
17631;SDS011;8934;51.194;17.150;2022-09-30T08:24:30;37.22;;;29.98;;
17631;SDS011;8934;51.194;17.150;2022-09-30T08:30:07;35.67;;;26.73;;
17631;SDS011;8934;51.194;17.150;2022-09-30T08:32:56;30.05;;;23.85;;
17631;SDS011;8934;51.194;17.150;2022-09-30T08:35:44;30.50;;;23.85;;
17631;SDS011;8934;51.194;17.150;2022-09-30T08:38:33;28.77;;;24.42;;
17631;SDS011;8934;51.194;17.150;2022-09-30T08:41:32;25.33;;;22.63;;
17631;SDS011;8934;51.194;17.150;2022-09-30T08:44:40;29.25;;;23.35;;
17631;SDS011;8934;51.194;17.150;2022-09-30T08:47:32;27.67;;;22.25;;
17631;SDS011;8934;51.194;17.150;2022-09-30T08:50:31;23.77;;;21.10;;
17631;SDS011;8934;51.194;17.150;2022-09-30T08:53:29;24.05;;;20.90;;
17631;SDS011;8934;51.194;17.150;2022-09-30T08:56:20;23.08;;;20.55;;
17631;SDS011;8934;51.194;17.150;2022-09-30T08:59:13;21.63;;;19.42;;
17631;SDS011;8934;51.194;17.150;2022-09-30T09:02:16;22.35;;;19.52;;
17631;SDS011;8934;51.194;17.150;2022-09-30T09:05:09;22.35;;;18.90;;
17631;SDS011;8934;51.194;17.150;2022-09-30T09:08:03;21.88;;;18.70;;
17631;SDS011;8934;51.194;17.150;2022-09-30T09:11:01;21.50;;;19.42;;
17631;SDS011;8934;51.194;17.150;2022-09-30T09:13:57;22.13;;;19.48;;
17631;SDS011;8934;51.194;17.150;2022-09-30T09:16:53;21.30;;;18.90;;
17631;SDS011;8934;51.194;17.150;2022-09-30T09:19:52;22.58;;;19.30;;
17631;SDS011;8934;51.194;17.150;2022-09-30T09:22:46;21.77;;;19.08;;
17631;SDS011;8934;51.194;17.150;2022-09-30T09:25:36;21.05;;;18.95;;
17631;SDS011;8934;51.194;17.150;2022-09-30T09:28:28;21.02;;;18.83;;
17631;SDS011;8934;51.194;17.150;2022-09-30T09:31:23;21.13;;;18.63;;
17631;SDS011;8934;51.194;17.150;2022-09-30T09:34:12;18.27;;;16.55;;
17631;SDS011;8934;51.194;17.150;2022-09-30T09:37:03;22.83;;;17.33;;
17631;SDS011;8934;51.194;17.150;2022-09-30T09:40:00;18.75;;;16.90;;
17631;SDS011;8934;51.194;17.150;2022-09-30T09:42:58;19.75;;;17.80;;
17631;SDS011;8934;51.194;17.150;2022-09-30T09:45:54;18.80;;;16.80;;
17631;SDS011;8934;51.194;17.150;2022-09-30T09:48:48;18.98;;;17.02;;
17631;SDS011;8934;51.194;17.150;2022-09-30T09:51:43;19.35;;;17.02;;
17631;SDS011;8934;51.194;17.150;2022-09-30T09:54:36;16.02;;;14.52;;
17631;SDS011;8934;51.194;17.150;2022-09-30T09:57:31;16.40;;;14.70;;
17631;SDS011;8934;51.194;17.150;2022-09-30T10:00:23;16.50;;;14.90;;
17631;SDS011;8934;51.194;17.150;2022-09-30T10:03:29;15.85;;;14.25;;
17631;SDS011;8934;51.194;17.150;2022-09-30T10:06:18;16.10;;;14.48;;
17631;SDS011;8934;51.194;17.150;2022-09-30T10:09:07;13.75;;;12.35;;
17631;SDS011;8934;51.194;17.150;2022-09-30T10:15:21;14.73;;;13.38;;
17631;SDS011;8934;51.194;17.150;2022-09-30T10:18:15;12.70;;;11.40;;
17631;SDS011;8934;51.194;17.150;2022-09-30T10:21:06;15.00;;;13.60;;
17631;SDS011;8934;51.194;17.150;2022-09-30T10:24:18;13.38;;;11.50;;
17631;SDS011;8934;51.194;17.150;2022-09-30T10:27:27;14.35;;;12.95;;
17631;SDS011;8934;51.194;17.150;2022-09-30T10:30:29;14.15;;;12.40;;
17631;SDS011;8934;51.194;17.150;2022-09-30T10:33:21;13.45;;;12.27;;
17631;SDS011;8934;51.194;17.150;2022-09-30T10:36:13;13.80;;;12.50;;
17631;SDS011;8934;51.194;17.150;2022-09-30T10:39:04;11.73;;;10.65;;
17631;SDS011;8934;51.194;17.150;2022-09-30T10:42:00;13.18;;;11.88;;
17631;SDS011;8934;51.194;17.150;2022-09-30T10:44:54;11.35;;;10.40;;
17631;SDS011;8934;51.194;17.150;2022-09-30T10:47:45;10.98;;;9.98;;
17631;SDS011;8934;51.194;17.150;2022-09-30T10:50:51;10.82;;;9.82;;
17631;SDS011;8934;51.194;17.150;2022-09-30T10:53:41;9.70;;;8.90;;
17631;SDS011;8934;51.194;17.150;2022-09-30T10:56:31;10.60;;;9.52;;
17631;SDS011;8934;51.194;17.150;2022-09-30T10:59:30;8.80;;;8.00;;
17631;SDS011;8934;51.194;17.150;2022-09-30T11:02:25;8.10;;;7.40;;
17631;SDS011;8934;51.194;17.150;2022-09-30T11:05:17;11.30;;;7.25;;
17631;SDS011;8934;51.194;17.150;2022-09-30T11:08:09;8.10;;;7.32;;
17631;SDS011;8934;51.194;17.150;2022-09-30T11:11:06;7.15;;;6.43;;
17631;SDS011;8934;51.194;17.150;2022-09-30T11:14:00;7.63;;;6.53;;
17631;SDS011;8934;51.194;17.150;2022-09-30T11:17:08;7.18;;;6.50;;
17631;SDS011;8934;51.194;17.150;2022-09-30T11:20:14;7.30;;;6.70;;
17631;SDS011;8934;51.194;17.150;2022-09-30T11:23:10;7.30;;;6.50;;
17631;SDS011;8934;51.194;17.150;2022-09-30T11:26:06;5.28;;;4.75;;
17631;SDS011;8934;51.194;17.150;2022-09-30T11:29:12;6.55;;;5.95;;
17631;SDS011;8934;51.194;17.150;2022-09-30T11:32:18;5.53;;;5.03;;
17631;SDS011;8934;51.194;17.150;2022-09-30T11:35:27;6.75;;;5.57;;
17631;SDS011;8934;51.194;17.150;2022-09-30T11:38:26;7.28;;;6.57;;
17631;SDS011;8934;51.194;17.150;2022-09-30T11:41:34;6.07;;;5.30;;
17631;SDS011;8934;51.194;17.150;2022-09-30T11:44:26;4.85;;;4.45;;
17631;SDS011;8934;51.194;17.150;2022-09-30T11:47:23;5.72;;;5.07;;
17631;SDS011;8934;51.194;17.150;2022-09-30T11:50:37;4.53;;;4.13;;
17631;SDS011;8934;51.194;17.150;2022-09-30T11:53:46;5.20;;;4.70;;
17631;SDS011;8934;51.194;17.150;2022-09-30T11:56:44;5.80;;;5.20;;
17631;SDS011;8934;51.194;17.150;2022-09-30T11:59:38;6.32;;;5.07;;
17631;SDS011;8934;51.194;17.150;2022-09-30T12:02:34;4.90;;;4.50;;
17631;SDS011;8934;51.194;17.150;2022-09-30T12:05:25;5.13;;;4.72;;
17631;SDS011;8934;51.194;17.150;2022-09-30T12:08:18;5.35;;;4.95;;
17631;SDS011;8934;51.194;17.150;2022-09-30T12:11:13;9.13;;;5.35;;
17631;SDS011;8934;51.194;17.150;2022-09-30T12:14:08;5.28;;;4.88;;
17631;SDS011;8934;51.194;17.150;2022-09-30T12:17:03;5.10;;;4.70;;
17631;SDS011;8934;51.194;17.150;2022-09-30T12:20:02;5.32;;;4.90;;
17631;SDS011;8934;51.194;17.150;2022-09-30T12:22:54;5.15;;;4.70;;
17631;SDS011;8934;51.194;17.150;2022-09-30T12:25:48;5.68;;;5.18;;
17631;SDS011;8934;51.194;17.150;2022-09-30T12:28:43;5.18;;;4.50;;
17631;SDS011;8934;51.194;17.150;2022-09-30T12:32:03;4.50;;;4.10;;
17631;SDS011;8934;51.194;17.150;2022-09-30T12:39:06;4.25;;;3.88;;
17631;SDS011;8934;51.194;17.150;2022-09-30T12:42:17;4.47;;;4.13;;
17631;SDS011;8934;51.194;17.150;2022-09-30T12:45:33;4.20;;;3.90;;
17631;SDS011;8934;51.194;17.150;2022-09-30T12:48:50;4.20;;;3.90;;
17631;SDS011;8934;51.194;17.150;2022-09-30T12:51:44;3.78;;;3.30;;
17631;SDS011;8934;51.194;17.150;2022-09-30T12:54:38;4.57;;;3.80;;
17631;SDS011;8934;51.194;17.150;2022-09-30T12:57:29;4.07;;;3.78;;
17631;SDS011;8934;51.194;17.150;2022-09-30T13:00:22;3.10;;;2.78;;
17631;SDS011;8934;51.194;17.150;2022-09-30T13:03:13;3.97;;;3.30;;
17631;SDS011;8934;51.194;17.150;2022-09-30T13:06:05;3.60;;;3.08;;
17631;SDS011;8934;51.194;17.150;2022-09-30T13:09:16;3.47;;;3.17;;
17631;SDS011;8934;51.194;17.150;2022-09-30T13:12:22;3.78;;;3.30;;
17631;SDS011;8934;51.194;17.150;2022-09-30T13:15:24;3.63;;;3.42;;
17631;SDS011;8934;51.194;17.150;2022-09-30T13:21:48;3.80;;;3.50;;
17631;SDS011;8934;51.194;17.150;2022-09-30T13:31:18;3.38;;;3.08;;
17631;SDS011;8934;51.194;17.150;2022-09-30T13:34:09;4.72;;;3.95;;
17631;SDS011;8934;51.194;17.150;2022-09-30T13:36:59;3.75;;;3.45;;
17631;SDS011;8934;51.194;17.150;2022-09-30T13:39:50;3.97;;;3.55;;
17631;SDS011;8934;51.194;17.150;2022-09-30T13:42:44;4.32;;;3.92;;
17631;SDS011;8934;51.194;17.150;2022-09-30T13:45:38;4.90;;;4.50;;
17631;SDS011;8934;51.194;17.150;2022-09-30T13:48:28;4.40;;;4.00;;
17631;SDS011;8934;51.194;17.150;2022-09-30T13:51:20;3.92;;;3.63;;
17631;SDS011;8934;51.194;17.150;2022-09-30T13:54:11;4.20;;;3.80;;
17631;SDS011;8934;51.194;17.150;2022-09-30T13:57:09;4.90;;;4.50;;
17631;SDS011;8934;51.194;17.150;2022-09-30T14:00:09;4.18;;;3.85;;
17631;SDS011;8934;51.194;17.150;2022-09-30T14:03:10;4.45;;;3.60;;
17631;SDS011;8934;51.194;17.150;2022-09-30T14:06:20;4.45;;;4.05;;
17631;SDS011;8934;51.194;17.150;2022-09-30T14:09:19;3.75;;;3.45;;
17631;SDS011;8934;51.194;17.150;2022-09-30T14:12:24;5.18;;;4.45;;
17631;SDS011;8934;51.194;17.150;2022-09-30T14:15:34;4.38;;;3.97;;
17631;SDS011;8934;51.194;17.150;2022-09-30T14:18:57;4.47;;;4.07;;
17631;SDS011;8934;51.194;17.150;2022-09-30T14:22:01;5.45;;;4.85;;
17631;SDS011;8934;51.194;17.150;2022-09-30T14:24:51;4.53;;;4.13;;
17631;SDS011;8934;51.194;17.150;2022-09-30T14:27:50;3.90;;;3.60;;
17631;SDS011;8934;51.194;17.150;2022-09-30T14:30:46;4.93;;;4.53;;
17631;SDS011;8934;51.194;17.150;2022-09-30T14:33:48;4.60;;;4.20;;
17631;SDS011;8934;51.194;17.150;2022-09-30T14:36:37;4.40;;;4.00;;
17631;SDS011;8934;51.194;17.150;2022-09-30T14:39:27;4.45;;;4.07;;
17631;SDS011;8934;51.194;17.150;2022-09-30T14:42:19;5.93;;;3.95;;
17631;SDS011;8934;51.194;17.150;2022-09-30T14:45:19;4.05;;;3.75;;
17631;SDS011;8934;51.194;17.150;2022-09-30T14:48:14;5.45;;;3.55;;
17631;SDS011;8934;51.194;17.150;2022-09-30T14:51:05;3.88;;;3.58;;
17631;SDS011;8934;51.194;17.150;2022-09-30T14:53:56;3.47;;;3.17;;
17631;SDS011;8934;51.194;17.150;2022-09-30T14:56:47;5.20;;;3.78;;
17631;SDS011;8934;51.194;17.150;2022-09-30T14:59:39;4.28;;;3.60;;
17631;SDS011;8934;51.194;17.150;2022-09-30T15:02:28;4.22;;;3.80;;
17631;SDS011;8934;51.194;17.150;2022-09-30T15:05:18;8.38;;;3.88;;
17631;SDS011;8934;51.194;17.150;2022-09-30T15:08:09;4.53;;;4.13;;
17631;SDS011;8934;51.194;17.150;2022-09-30T15:10:58;4.10;;;3.72;;
17631;SDS011;8934;51.194;17.150;2022-09-30T15:13:46;4.75;;;3.70;;
17631;SDS011;8934;51.194;17.150;2022-09-30T15:16:43;3.90;;;3.60;;
17631;SDS011;8934;51.194;17.150;2022-09-30T15:19:33;4.13;;;3.72;;
17631;SDS011;8934;51.194;17.150;2022-09-30T15:22:29;5.18;;;4.05;;
17631;SDS011;8934;51.194;17.150;2022-09-30T15:25:18;4.40;;;4.00;;
17631;SDS011;8934;51.194;17.150;2022-09-30T15:28:08;4.20;;;3.60;;
17631;SDS011;8934;51.194;17.150;2022-09-30T15:30:57;3.80;;;3.47;;
17631;SDS011;8934;51.194;17.150;2022-09-30T15:33:45;4.25;;;3.90;;
17631;SDS011;8934;51.194;17.150;2022-09-30T15:36:34;4.45;;;4.05;;
17631;SDS011;8934;51.194;17.150;2022-09-30T15:39:25;4.03;;;3.55;;
17631;SDS011;8934;51.194;17.150;2022-09-30T15:42:37;4.93;;;3.95;;
17631;SDS011;8934;51.194;17.150;2022-09-30T15:45:30;4.80;;;3.70;;
17631;SDS011;8934;51.194;17.150;2022-09-30T15:48:33;4.07;;;3.75;;
17631;SDS011;8934;51.194;17.150;2022-09-30T15:51:28;4.10;;;3.55;;
17631;SDS011;8934;51.194;17.150;2022-09-30T15:54:45;4.07;;;3.78;;
17631;SDS011;8934;51.194;17.150;2022-09-30T15:57:42;4.43;;;4.03;;
17631;SDS011;8934;51.194;17.150;2022-09-30T16:00:33;4.43;;;4.03;;
17631;SDS011;8934;51.194;17.150;2022-09-30T16:03:25;4.60;;;4.20;;
17631;SDS011;8934;51.194;17.150;2022-09-30T16:06:15;4.30;;;3.95;;
17631;SDS011;8934;51.194;17.150;2022-09-30T16:09:17;4.28;;;3.97;;
17631;SDS011;8934;51.194;17.150;2022-09-30T16:12:14;4.38;;;3.72;;
17631;SDS011;8934;51.194;17.150;2022-09-30T16:15:05;4.30;;;4.00;;
17631;SDS011;8934;51.194;17.150;2022-09-30T16:17:57;5.13;;;4.63;;
17631;SDS011;8934;51.194;17.150;2022-09-30T16:20:55;5.38;;;4.55;;
17631;SDS011;8934;51.194;17.150;2022-09-30T16:23:45;4.80;;;4.40;;
17631;SDS011;8934;51.194;17.150;2022-09-30T16:26:33;4.88;;;4.18;;
17631;SDS011;8934;51.194;17.150;2022-09-30T16:29:22;4.50;;;4.20;;
17631;SDS011;8934;51.194;17.150;2022-09-30T16:32:11;5.63;;;5.13;;
17631;SDS011;8934;51.194;17.150;2022-09-30T16:35:00;5.00;;;4.60;;
17631;SDS011;8934;51.194;17.150;2022-09-30T16:37:49;4.97;;;4.57;;
17631;SDS011;8934;51.194;17.150;2022-09-30T16:40:37;5.10;;;4.70;;
17631;SDS011;8934;51.194;17.150;2022-09-30T16:43:25;4.85;;;4.07;;
17631;SDS011;8934;51.194;17.150;2022-09-30T16:46:14;6.50;;;5.90;;
17631;SDS011;8934;51.194;17.150;2022-09-30T16:49:04;7.10;;;5.47;;
17631;SDS011;8934;51.194;17.150;2022-09-30T16:51:59;6.63;;;6.03;;
17631;SDS011;8934;51.194;17.150;2022-09-30T16:54:47;6.10;;;5.60;;
17631;SDS011;8934;51.194;17.150;2022-09-30T16:57:35;11.85;;;6.38;;
17631;SDS011;8934;51.194;17.150;2022-09-30T17:00:24;13.90;;;7.30;;
17631;SDS011;8934;51.194;17.150;2022-09-30T17:03:14;10.90;;;8.07;;
17631;SDS011;8934;51.194;17.150;2022-09-30T17:06:03;7.75;;;7.07;;
17631;SDS011;8934;51.194;17.150;2022-09-30T17:08:51;10.80;;;9.70;;
17631;SDS011;8934;51.194;17.150;2022-09-30T17:11:39;39.17;;;28.60;;
17631;SDS011;8934;51.194;17.150;2022-09-30T17:14:27;27.27;;;20.42;;
17631;SDS011;8934;51.194;17.150;2022-09-30T17:17:15;31.00;;;22.00;;
17631;SDS011;8934;51.194;17.150;2022-09-30T17:20:06;41.80;;;25.25;;
17631;SDS011;8934;51.194;17.150;2022-09-30T17:22:54;40.03;;;23.92;;
17631;SDS011;8934;51.194;17.150;2022-09-30T17:25:42;38.70;;;25.20;;
17631;SDS011;8934;51.194;17.150;2022-09-30T17:28:31;38.85;;;25.67;;
17631;SDS011;8934;51.194;17.150;2022-09-30T17:31:20;39.50;;;28.38;;
17631;SDS011;8934;51.194;17.150;2022-09-30T17:34:08;40.85;;;25.00;;
17631;SDS011;8934;51.194;17.150;2022-09-30T17:36:57;44.80;;;26.92;;
17631;SDS011;8934;51.194;17.150;2022-09-30T17:39:47;35.53;;;25.23;;
17631;SDS011;8934;51.194;17.150;2022-09-30T17:42:35;44.72;;;26.20;;
17631;SDS011;8934;51.194;17.150;2022-09-30T17:45:44;46.40;;;27.27;;
17631;SDS011;8934;51.194;17.150;2022-09-30T17:48:33;45.38;;;28.08;;
17631;SDS011;8934;51.194;17.150;2022-09-30T17:51:23;46.80;;;27.80;;
17631;SDS011;8934;51.194;17.150;2022-09-30T17:54:13;44.08;;;28.13;;
17631;SDS011;8934;51.194;17.150;2022-09-30T17:57:01;42.00;;;27.90;;
17631;SDS011;8934;51.194;17.150;2022-09-30T17:59:49;38.83;;;27.05;;
17631;SDS011;8934;51.194;17.150;2022-09-30T18:02:38;49.47;;;29.75;;
17631;SDS011;8934;51.194;17.150;2022-09-30T18:05:27;40.25;;;26.90;;
17631;SDS011;8934;51.194;17.150;2022-09-30T18:08:15;42.28;;;27.77;;
17631;SDS011;8934;51.194;17.150;2022-09-30T18:11:05;44.00;;;27.30;;
17631;SDS011;8934;51.194;17.150;2022-09-30T18:13:54;37.53;;;26.45;;
17631;SDS011;8934;51.194;17.150;2022-09-30T18:16:43;38.60;;;25.30;;
17631;SDS011;8934;51.194;17.150;2022-09-30T18:19:31;40.78;;;25.65;;
17631;SDS011;8934;51.194;17.150;2022-09-30T18:22:21;39.80;;;25.05;;
17631;SDS011;8934;51.194;17.150;2022-09-30T18:25:10;33.58;;;24.55;;
17631;SDS011;8934;51.194;17.150;2022-09-30T18:28:10;33.63;;;21.73;;
17631;SDS011;8934;51.194;17.150;2022-09-30T18:31:03;32.57;;;22.40;;
17631;SDS011;8934;51.194;17.150;2022-09-30T18:33:55;35.33;;;24.33;;
17631;SDS011;8934;51.194;17.150;2022-09-30T18:36:44;32.97;;;23.80;;
17631;SDS011;8934;51.194;17.150;2022-09-30T18:39:36;35.50;;;23.75;;
17631;SDS011;8934;51.194;17.150;2022-09-30T18:42:26;30.50;;;21.47;;
17631;SDS011;8934;51.194;17.150;2022-09-30T18:45:18;27.97;;;21.90;;
17631;SDS011;8934;51.194;17.150;2022-09-30T18:48:08;30.43;;;20.77;;
17631;SDS011;8934;51.194;17.150;2022-09-30T18:51:01;24.30;;;19.93;;
17631;SDS011;8934;51.194;17.150;2022-09-30T18:53:57;35.90;;;22.03;;
17631;SDS011;8934;51.194;17.150;2022-09-30T18:56:47;26.13;;;20.15;;
17631;SDS011;8934;51.194;17.150;2022-09-30T18:59:42;29.53;;;19.90;;